Hovedside
METAR-TAF:

METAR-TAF

Lufthavner :

Brighton, England

breddegrad: 50-50N, lengdegrad: 000-17W, høyde over havet: 2 m

Gjeldene værobservasjon

Denne rapporten ble laget for 1 time og 51 minutter siden, klokken 18:50 UTC
Vind 4 kt fra Sør-sørvest
Temperatur 21°C
Luftfuktighet 69%
Trykk 1018 hPa
Sikt 10 km eller mer
ingen skyer under 1500 m og ingen bygeskyer

METAR: EGKA 241850Z 20004KT CAVOK 21/15 Q1018

Tid: 21:41 (20:41 UTC)

Varsel

Denne rapporten ble laget for 6 timer og 38 minutter siden, klokken 14:03 UTC
Varsel gyldig fra 24. klokken 15 UTC til 24. klokken 19 UTC
Vind 9 kt fra Sør-sørvest
Sikt 10 km eller mer
Få skyer i en høyde av 1000 ft

TAF: EGKA 241403Z 2415/2419 20009KT 9999 FEW010

Værobservasjoner og værvarsel for over 4000 flyplasser (METAR- og TAF-rapporter).

Tilgjengelige stasjoner er representert av de røde og gule prikkene på kartet.

Hold musepekeren over prikken for å se navnet på stasjonen.

Klikk så for å se værobservasjoner og -varsler.

For å forandre kartet kan du klikke på den grønne knappen med svart kryss for å zoome inn, på den grønne knappen med strek for å zoome ut, eller på de grønne pilene for å se tilstøtende kart.


METAR-TAF: